Time;durP1;ratioP1;P1;durP2;ratioP2;P2;SDS_P1;SDS_P2;PMS_P1;PMS_P2;Temp;Humidity;BMP_temperature;BMP_pressure;BME280_temperature;BME280_humidity;BME280_pressure;Samples;Min_cycle;Max_cycle;Signal;HPM_P1;HPM_P2
2023/01/15 00:01:00;;;;;;;;;;;;;;;19.54;65.69;99070.09;2095605;28;19935;-47
2023/01/15 00:02:02;;;;;;;;;;;;;;;19.54;65.67;99066.56;2096254;28;19935;-48
2023/01/15 00:03:02;;;;;;;;;;;;;;;19.52;65.93;99064.06;2095615;28;19943;-47
2023/01/15 00:04:04;;;;;;;;;;;;;;;19.53;65.63;99067.56;2091499;28;19964;-47
2023/01/15 00:05:05;;;;;;;;;;;;;;;19.53;65.87;99059.50;2094056;28;19995;-49
2023/01/15 00:06:07;;;;;;;;;;;;;;;19.52;65.68;99069.44;2095298;28;19927;-46
2023/01/15 00:07:07;;;;;;;;;;;;;;;19.52;65.54;99064.06;2094137;28;19930;-51
2023/01/15 00:08:09;;;;;;;;;;;;;;;19.52;65.88;99068.63;2093998;28;19937;-45
2023/01/15 00:09:13;;;;;;;;;;;;;;;19.51;65.91;99073.19;2095086;28;19931;-49
2023/01/15 00:10:14;;;;;;;;;;;;;;;19.50;66.08;99067.97;2093825;28;20002;-50
2023/01/15 00:11:16;;;;;;;;;;;;;;;19.51;66.05;99066.97;2094567;28;20379;-49
2023/01/15 00:12:18;;;;;;;;;;;;;;;19.50;65.97;99076.03;2095750;28;19951;-48
2023/01/15 00:13:18;;;;;;;;;;;;;;;19.49;65.99;99064.47;2087422;28;19931;-46
2023/01/15 00:14:20;;;;;;;;;;;;;;;19.48;66.01;99068.19;2095621;28;19927;-52
2023/01/15 00:15:20;;;;;;;;;;;;;;;19.50;65.89;99076.03;2095577;28;19928;-48
2023/01/15 00:16:23;;;;;;;;;;;;;;;19.48;65.89;99068.19;2095999;28;19924;-48
2023/01/15 00:17:23;;;;;;;;;;;;;;;19.48;66.00;99070.06;2097147;28;19924;-50
2023/01/15 00:18:25;;;;;;;;;;;;;;;19.47;65.91;99065.69;2096999;28;20469;-51
2023/01/15 00:19:25;;;;;;;;;;;;;;;19.45;65.86;99065.06;2095899;28;19924;-46
2023/01/15 00:20:26;;;;;;;;;;;;;;;19.47;66.04;99065.69;2098423;28;19924;-52
2023/01/15 00:21:27;;;;;;;;;;;;;;;19.47;66.04;99066.50;2095461;28;19924;-47
2023/01/15 00:22:29;;;;;;;;;;;;;;;19.46;66.08;99062.16;2097531;28;19927;-50
2023/01/15 00:27:41;;;;;;;;;;;;;;;19.45;66.11;99060.53;2066964;28;19926;-52
2023/01/15 00:28:41;;;;;;;;;;;;;;;19.42;66.19;99058.22;2092937;28;19932;-54
2023/01/15 00:29:43;;;;;;;;;;;;;;;19.40;66.06;99063.78;2093866;28;20731;-49
2023/01/15 00:30:43;;;;;;;;;;;;;;;19.40;66.16;99061.09;2096234;28;19924;-50
2023/01/15 00:31:51;;;;;;;;;;;;;;;19.41;66.26;99056.56;2096677;28;20634;-47
2023/01/15 00:32:52;;;;;;;;;;;;;;;19.41;65.84;99059.25;2098075;28;19924;-49
2023/01/15 00:33:53;;;;;;;;;;;;;;;19.40;66.02;99061.09;2094047;28;19933;-50
2023/01/15 00:34:54;;;;;;;;;;;;;;;19.38;65.83;99057.78;2097022;28;19927;-50
2023/01/15 00:35:56;;;;;;;;;;;;;;;19.40;66.12;99054.91;2095015;28;20841;-50
2023/01/15 00:36:57;;;;;;;;;;;;;;;19.38;65.91;99052.41;2095586;28;19928;-50
2023/01/15 00:37:59;;;;;;;;;;;;;;;19.36;65.88;99059.84;2095480;28;20287;-47
2023/01/15 00:39:00;;;;;;;;;;;;;;;19.36;66.10;99054.47;2095457;28;19927;-48
2023/01/15 00:40:01;;;;;;;;;;;;;;;19.36;66.06;99054.47;2094351;28;19924;-50
2023/01/15 00:41:02;;;;;;;;;;;;;;;19.36;66.13;99053.63;2096269;28;19923;-51
2023/01/15 00:42:03;;;;;;;;;;;;;;;19.36;66.06;99054.47;2094802;28;19920;-48
2023/01/15 00:43:06;;;;;;;;;;;;;;;19.33;66.06;99054.03;2095513;28;19926;-49
2023/01/15 00:44:06;;;;;;;;;;;;;;;19.33;65.98;99057.53;2096884;28;19920;-46
2023/01/15 00:45:09;;;;;;;;;;;;;;;19.34;66.17;99055.69;2098564;28;19930;-47
2023/01/15 00:46:10;;;;;;;;;;;;;;;19.31;66.34;99053.41;2098133;28;20002;-47
2023/01/15 00:47:13;;;;;;;;;;;;;;;19.29;66.22;99061.66;2097605;28;19935;-48
2023/01/15 00:48:14;;;;;;;;;;;;;;;19.29;65.82;99058.16;2093854;28;19970;-51
2023/01/15 00:49:15;;;;;;;;;;;;;;;19.30;66.36;99057.94;2095362;28;19928;-48
2023/01/15 00:50:16;;;;;;;;;;;;;;;19.29;66.07;99053.59;2097892;28;19920;-49
2023/01/15 00:51:18;;;;;;;;;;;;;;;19.28;66.23;99062.69;2097916;28;20629;-53
2023/01/15 00:52:18;;;;;;;;;;;;;;;19.29;66.30;99058.16;2096064;28;20299;-52
2023/01/15 00:53:19;;;;;;;;;;;;;;;19.27;66.42;99060.19;2095029;28;20593;-51
2023/01/15 00:54:20;;;;;;;;;;;;;;;19.26;66.42;99048.63;2096785;28;20383;-51
2023/01/15 00:55:21;;;;;;;;;;;;;;;19.27;66.27;99057.50;2094465;28;19928;-49
2023/01/15 00:56:22;;;;;;;;;;;;;;;19.26;66.02;99053.16;2095198;28;19921;-50
2023/01/15 00:57:23;;;;;;;;;;;;;;;19.26;65.99;99059.38;2094315;28;19950;-48
2023/01/15 00:58:25;;;;;;;;;;;;;;;19.25;65.99;99052.34;2094727;28;19924;-53
2023/01/15 00:59:27;;;;;;;;;;;;;;;19.25;66.30;99049.66;2095861;28;19924;-46
2023/01/15 01:00:27;;;;;;;;;;;;;;;19.22;66.01;99050.03;2095092;28;19928;-47
2023/01/15 01:01:29;;;;;;;;;;;;;;;19.22;66.27;99044.66;2094978;28;20496;-46
2023/01/15 01:02:29;;;;;;;;;;;;;;;19.22;65.88;99041.13;2096693;28;19920;-51
2023/01/15 01:03:31;;;;;;;;;;;;;;;19.22;66.16;99041.94;2095416;28;19924;-46
2023/01/15 01:04:31;;;;;;;;;;;;;;;19.23;66.10;99043.63;2095049;28;20843;-49
2023/01/15 01:05:33;;;;;;;;;;;;;;;19.21;65.95;99040.31;2095270;28;19928;-49
2023/01/15 01:06:34;;;;;;;;;;;;;;;19.19;66.19;99043.22;2097347;28;19935;-49
2023/01/15 01:07:35;;;;;;;;;;;;;;;19.17;66.19;99039.06;2095198;28;20695;-46
2023/01/15 01:08:35;;;;;;;;;;;;;;;19.21;66.37;99045.69;2096314;28;19935;-51
2023/01/15 01:09:37;;;;;;;;;;;;;;;19.19;66.42;99042.34;2095233;28;21870;-50
2023/01/15 01:10:37;;;;;;;;;;;;;;;19.17;66.55;99037.19;2096130;28;20395;-51
2023/01/15 01:11:39;;;;;;;;;;;;;;;19.15;66.42;99036.53;2096407;28;19920;-46
2023/01/15 01:12:40;;;;;;;;;;;;;;;19.15;66.40;99035.72;2097085;28;19927;-49
2023/01/15 01:13:43;;;;;;;;;;;;;;;19.16;66.37;99029.31;2092675;28;19935;-46
2023/01/15 01:14:44;;;;;;;;;;;;;;;19.14;66.38;99034.06;2094596;28;19924;-48
2023/01/15 01:15:45;;;;;;;;;;;;;;;19.13;66.70;99029.72;2095666;28;19947;-47
2023/01/15 01:16:46;;;;;;;;;;;;;;;19.10;66.53;99022.03;2094321;28;19928;-52
2023/01/15 01:17:47;;;;;;;;;;;;;;;19.11;66.70;99021.84;2094526;28;19928;-45
2023/01/15 01:18:48;;;;;;;;;;;;;;;19.09;66.85;99013.16;2097817;28;19924;-51
2023/01/15 01:19:49;;;;;;;;;;;;;;;19.12;66.42;99017.31;2094102;28;20311;-51
2023/01/15 01:20:50;;;;;;;;;;;;;;;19.11;66.72;99016.47;2092995;28;19920;-52
2023/01/15 01:21:52;;;;;;;;;;;;;;;19.10;66.49;99012.09;2099581;28;19934;-49
2023/01/15 01:22:52;;;;;;;;;;;;;;;19.10;66.82;99011.28;2095578;28;19932;-50
2023/01/15 01:23:54;;;;;;;;;;;;;;;19.11;66.16;99016.47;2094206;28;19925;-46
2023/01/15 01:24:54;;;;;;;;;;;;;;;19.11;66.58;99010.25;2097129;28;19925;-49
2023/01/15 01:25:57;;;;;;;;;;;;;;;19.09;66.82;99009.63;2093380;28;19950;-51
2023/01/15 01:26:58;;;;;;;;;;;;;;;19.09;66.94;99015.00;2098216;28;19924;-51
2023/01/15 01:27:59;;;;;;;;;;;;;;;19.07;66.87;99009.81;2095717;28;19920;-48
2023/01/15 01:29:01;;;;;;;;;;;;;;;19.07;66.65;99017.06;2095752;28;20553;-46
2023/01/15 01:30:03;;;;;;;;;;;;;;;19.06;66.74;99013.53;2094039;28;19977;-55
2023/01/15 01:31:04;;;;;;;;;;;;;;;19.06;66.89;99018.91;2094846;28;19931;-46
2023/01/15 01:32:06;;;;;;;;;;;;;;;19.04;67.01;99017.44;2096879;28;19926;-51
2023/01/15 01:33:06;;;;;;;;;;;;;;;19.04;67.10;99017.44;2095369;28;20045;-50
2023/01/15 01:34:09;;;;;;;;;;;;;;;19.00;67.27;99011.66;2092915;28;19947;-46
2023/01/15 01:35:09;;;;;;;;;;;;;;;19.01;66.82;99005.22;2094912;28;20521;-46
2023/01/15 01:36:11;;;;;;;;;;;;;;;19.01;66.54;99009.78;2093933;28;19924;-48
2023/01/15 01:37:11;;;;;;;;;;;;;;;19.00;67.10;99008.09;2095289;28;20276;-50
2023/01/15 01:38:13;;;;;;;;;;;;;;;19.00;67.14;99010.78;2096339;28;19926;-49
2023/01/15 01:39:14;;;;;;;;;;;;;;;18.99;66.73;99004.59;2095223;28;19966;-49
2023/01/15 01:40:16;;;;;;;;;;;;;;;18.99;66.97;99001.91;2094237;28;19920;-50
2023/01/15 01:41:17;;;;;;;;;;;;;;;19.01;67.05;99007.09;2094621;28;19936;-53
2023/01/15 01:42:19;;;;;;;;;;;;;;;19.00;66.57;99003.59;2096768;28;19920;-48
2023/01/15 01:43:21;;;;;;;;;;;;;;;19.01;66.89;98990.97;2097841;28;19924;-48
2023/01/15 01:44:49;;;;;;;;;;;;;;;18.98;67.02;98993.00;2095415;28;19920;-51
2023/01/15 01:45:51;;;;;;;;;;;;;;;18.97;67.37;99001.25;2077484;28;19928;-46
2023/01/15 01:46:53;;;;;;;;;;;;;;;18.96;67.29;98997.75;2090563;28;19935;-49
2023/01/15 01:47:56;;;;;;;;;;;;;;;18.96;67.10;98994.25;2098968;28;19947;-50
2023/01/15 01:48:59;;;;;;;;;;;;;;;18.94;66.94;98989.06;2094819;28;19935;-50
2023/01/15 01:50:04;;;;;;;;;;;;;;;18.96;66.85;98984.31;2096292;28;20017;-51
2023/01/15 01:51:05;;;;;;;;;;;;;;;18.95;67.06;98981.84;2095364;28;19924;-47
2023/01/15 01:52:08;;;;;;;;;;;;;;;18.94;66.91;98985.53;2097327;28;19924;-50
2023/01/15 01:53:11;;;;;;;;;;;;;;;18.92;67.30;98983.06;2095731;28;19928;-47
2023/01/15 01:54:15;;;;;;;;;;;;;;;18.92;67.37;98987.59;2096626;28;20027;-49
2023/01/15 01:55:18;;;;;;;;;;;;;;;18.91;66.90;98989.44;2094455;28;19931;-48
2023/01/15 01:56:20;;;;;;;;;;;;;;;18.93;67.24;98987.41;2096639;28;20434;-49
2023/01/15 01:57:21;;;;;;;;;;;;;;;18.92;66.95;98993.81;2089488;28;20347;-48
2023/01/15 01:58:24;;;;;;;;;;;;;;;18.91;67.32;98981.38;2097643;28;19997;-49
2023/01/15 01:59:25;;;;;;;;;;;;;;;18.90;67.52;98981.59;2096290;28;19955;-46
2023/01/15 02:00:28;;;;;;;;;;;;;;;18.89;67.30;98978.09;2095745;28;20307;-48
2023/01/15 02:01:30;;;;;;;;;;;;;;;18.89;67.06;98978.09;2096607;28;19931;-46
2023/01/15 02:02:31;;;;;;;;;;;;;;;18.88;66.95;98967.50;2095188;28;19950;-48
2023/01/15 02:03:34;;;;;;;;;;;;;;;18.86;67.50;98978.47;2094457;28;19924;-54
2023/01/15 02:04:36;;;;;;;;;;;;;;;18.85;67.46;98975.97;2094526;28;19924;-46
2023/01/15 02:05:38;;;;;;;;;;;;;;;18.85;67.46;98971.41;2096634;28;20422;-52
2023/01/15 02:06:41;;;;;;;;;;;;;;;18.87;67.33;98979.31;2094754;28;20377;-49
2023/01/15 02:07:41;;;;;;;;;;;;;;;18.86;67.41;98969.56;2096549;28;20679;-45
2023/01/15 02:08:43;;;;;;;;;;;;;;;18.84;67.37;98969.78;2087387;28;20029;-48
2023/01/15 02:09:43;;;;;;;;;;;;;;;18.83;67.31;98968.09;2093601;28;19924;-49
2023/01/15 02:10:49;;;;;;;;;;;;;;;18.82;67.48;98966.44;2096393;28;20174;-46
2023/01/15 02:11:54;;;;;;;;;;;;;;;18.83;67.29;98967.28;2095960;28;19936;-47
2023/01/15 02:12:59;;;;;;;;;;;;;;;18.82;67.25;98976.38;2095567;28;19927;-52
2023/01/15 02:14:04;;;;;;;;;;;;;;;18.83;67.24;98976.16;2095653;28;20294;-47
2023/01/15 02:15:08;;;;;;;;;;;;;;;18.81;67.63;98978.22;2093727;28;19928;-48
2023/01/15 02:16:15;;;;;;;;;;;;;;;18.82;67.14;98974.50;2095632;28;20414;-46
2023/01/15 02:17:19;;;;;;;;;;;;;;;18.81;67.52;98980.09;2095163;28;19924;-49
2023/01/15 02:18:23;;;;;;;;;;;;;;;18.79;67.58;98966.84;2094827;28;20231;-48
2023/01/15 02:19:31;;;;;;;;;;;;;;;18.77;67.28;98960.81;2087384;28;19925;-46
2023/01/15 02:20:37;;;;;;;;;;;;;;;18.78;67.33;98964.34;2095481;28;19920;-51
2023/01/15 02:21:45;;;;;;;;;;;;;;;18.80;67.12;98967.66;2096183;28;19959;-49
2023/01/15 02:22:53;;;;;;;;;;;;;;;18.79;67.20;98961.47;2095435;28;20705;-51
2023/01/15 02:24:04;;;;;;;;;;;;;;;18.77;67.39;98962.69;2095852;28;19920;-50
2023/01/15 02:25:10;;;;;;;;;;;;;;;18.77;67.00;98968.88;2094882;28;19951;-48
2023/01/15 02:26:29;;;;;;;;;;;;;;;18.75;67.13;98966.41;2095015;28;20423;-48
2023/01/15 02:27:32;;;;;;;;;;;;;;;18.77;67.49;98968.06;2095253;28;19928;-50
2023/01/15 02:28:33;;;;;;;;;;;;;;;18.74;67.40;98969.28;2096368;28;19920;-47
2023/01/15 02:29:40;;;;;;;;;;;;;;;18.74;67.13;98966.59;2094453;28;19920;-49
2023/01/15 02:30:42;;;;;;;;;;;;;;;18.72;67.47;98955.16;2094301;28;19935;-48
2023/01/15 02:31:47;;;;;;;;;;;;;;;18.71;67.35;98957.03;2094782;28;19920;-46
2023/01/15 02:32:50;;;;;;;;;;;;;;;18.71;67.49;98958.91;2093946;28;19927;-52
2023/01/15 02:34:00;;;;;;;;;;;;;;;18.70;67.79;98954.56;2095343;28;19943;-49
2023/01/15 02:35:02;;;;;;;;;;;;;;;18.70;67.89;98954.56;2093975;28;19927;-49
2023/01/15 02:36:07;;;;;;;;;;;;;;;18.69;67.59;98944.81;2093341;28;20011;-46
2023/01/15 02:37:10;;;;;;;;;;;;;;;18.68;67.65;98946.69;2091394;28;19936;-51
2023/01/15 02:38:12;;;;;;;;;;;;;;;18.67;67.50;98946.91;2092658;28;20429;-51
2023/01/15 02:39:14;;;;;;;;;;;;;;;18.68;67.34;98943.16;2094013;28;19924;-55
2023/01/15 02:40:16;;;;;;;;;;;;;;;18.67;67.52;98946.91;2092650;28;20777;-50
2023/01/15 02:41:19;;;;;;;;;;;;;;;18.66;67.39;98947.91;2092661;28;19935;-49
2023/01/15 02:42:21;;;;;;;;;;;;;;;18.65;67.40;98948.94;2094442;28;20480;-50
2023/01/15 02:43:26;;;;;;;;;;;;;;;18.67;67.34;98947.72;2093074;28;19932;-50
2023/01/15 02:44:29;;;;;;;;;;;;;;;18.65;67.37;98940.88;2093694;28;19924;-51
2023/01/15 02:45:32;;;;;;;;;;;;;;;18.65;67.39;98944.41;2094157;28;19920;-46
2023/01/15 02:46:35;;;;;;;;;;;;;;;18.65;67.59;98946.25;2095754;28;20265;-47
2023/01/15 02:47:38;;;;;;;;;;;;;;;18.64;67.39;98942.75;2094833;28;19955;-47
2023/01/15 02:48:40;;;;;;;;;;;;;;;18.63;67.45;98938.38;2094172;28;19920;-49
2023/01/15 02:49:42;;;;;;;;;;;;;;;18.63;67.43;98945.59;2096687;28;19924;-48
2023/01/15 02:50:44;;;;;;;;;;;;;;;18.62;67.49;98941.28;2095979;28;19924;-51
2023/01/15 02:51:48;;;;;;;;;;;;;;;18.61;67.65;98937.75;2095286;28;19928;-48
2023/01/15 02:52:52;;;;;;;;;;;;;;;18.64;67.51;98933.84;2093608;28;20800;-49
2023/01/15 02:53:57;;;;;;;;;;;;;;;18.63;67.46;98932.19;2091928;28;20395;-49
2023/01/15 02:55:02;;;;;;;;;;;;;;;18.62;67.78;98928.66;2095319;28;19925;-49
2023/01/15 02:56:06;;;;;;;;;;;;;;;18.63;67.45;98930.31;2096075;28;19978;-48
2023/01/15 02:57:09;;;;;;;;;;;;;;;18.62;67.46;98935.91;2094065;28;20284;-48
2023/01/15 02:58:12;;;;;;;;;;;;;;;18.62;67.25;98925.97;2095717;28;19959;-47
2023/01/15 02:59:17;;;;;;;;;;;;;;;18.60;67.38;98928.03;2095439;28;19936;-49
2023/01/15 03:00:21;;;;;;;;;;;;;;;18.59;67.65;98922.88;2092660;28;19965;-48
2023/01/15 03:01:25;;;;;;;;;;;;;;;18.58;67.33;98927.38;2086122;28;19920;-48
2023/01/15 03:02:28;;;;;;;;;;;;;;;18.58;67.43;98926.56;2087997;28;19934;-49
2023/01/15 03:03:33;;;;;;;;;;;;;;;18.57;67.48;98919.53;2092427;28;20411;-48
2023/01/15 03:04:37;;;;;;;;;;;;;;;18.56;67.46;98928.63;2093510;28;19924;-48
2023/01/15 03:05:38;;;;;;;;;;;;;;;18.56;67.43;98918.72;2093979;28;19929;-49
2023/01/15 03:06:44;;;;;;;;;;;;;;;18.56;67.63;98920.56;2093895;28;19924;-47
2023/01/15 03:07:47;;;;;;;;;;;;;;;18.56;67.32;98917.88;2094308;28;19921;-48
2023/01/15 03:08:49;;;;;;;;;;;;;;;18.55;67.29;98917.03;2092390;28;20062;-48
2023/01/15 03:09:51;;;;;;;;;;;;;;;18.53;67.77;98914.56;2093396;28;19928;-47
2023/01/15 03:10:59;;;;;;;;;;;;;;;18.50;67.94;98914.13;2094253;28;19921;-47
2023/01/15 03:12:04;;;;;;;;;;;;;;;18.52;67.74;98912.06;2094485;28;19924;-47
2023/01/15 03:13:07;;;;;;;;;;;;;;;18.51;67.55;98905.03;2093193;28;20425;-49
2023/01/15 03:14:14;;;;;;;;;;;;;;;18.49;67.78;98913.28;2096180;28;20334;-48
2023/01/15 03:16:33;;;;;;;;;;;;;;;18.48;67.93;98916.19;2095720;28;20375;-47
2023/01/15 03:16:44;;;;;;;;;;;;;;;18.48;67.77;98924.22;2096731;28;20363;-49
2023/01/15 03:17:48;;;;;;;;;;;;;;;18.48;67.72;98925.06;2098419;28;19970;-51
2023/01/15 03:18:52;;;;;;;;;;;;;;;18.49;67.97;98921.34;2097809;28;19931;-49
2023/01/15 03:19:57;;;;;;;;;;;;;;;18.49;67.83;98924.03;2100725;28;19924;-48
2023/01/15 03:21:03;;;;;;;;;;;;;;;18.47;67.85;98926.09;2097113;28;19928;-47
2023/01/15 03:22:07;;;;;;;;;;;;;;;18.47;68.20;98918.03;2097407;28;19920;-49
2023/01/15 03:23:10;;;;;;;;;;;;;;;18.47;67.63;98909.97;2096997;28;19931;-48
2023/01/15 03:24:13;;;;;;;;;;;;;;;18.45;68.27;98908.50;2097504;28;20367;-47
2023/01/15 03:25:16;;;;;;;;;;;;;;;18.43;68.26;98906.00;2098061;28;19940;-48
2023/01/15 03:26:17;;;;;;;;;;;;;;;18.44;67.97;98899.63;2098254;28;19927;-47
2023/01/15 03:27:18;;;;;;;;;;;;;;;18.44;67.55;98896.94;2098530;28;19928;-50
2023/01/15 03:28:22;;;;;;;;;;;;;;;18.44;67.81;98896.94;2098162;28;19921;-48
2023/01/15 03:29:25;;;;;;;;;;;;;;;18.44;67.68;98894.25;2097948;28;19924;-47
2023/01/15 03:30:27;;;;;;;;;;;;;;;18.44;68.10;98894.25;2096883;28;19927;-48
2023/01/15 03:31:29;;;;;;;;;;;;;;;18.42;67.89;98898.16;2099560;28;20306;-47
2023/01/15 03:32:31;;;;;;;;;;;;;;;18.42;68.35;98901.69;2098558;28;19920;-47
2023/01/15 03:33:33;;;;;;;;;;;;;;;18.42;67.91;98896.31;2095856;28;19935;-48
2023/01/15 03:34:37;;;;;;;;;;;;;;;18.42;68.12;98892.78;2097867;28;20355;-48
2023/01/15 03:35:42;;;;;;;;;;;;;;;18.42;68.21;98890.94;2096880;28;20468;-47
2023/01/15 03:36:43;;;;;;;;;;;;;;;18.41;68.19;98891.13;2099645;28;19920;-46
2023/01/15 03:37:44;;;;;;;;;;;;;;;18.42;67.80;98892.78;2095873;28;19924;-48
2023/01/15 03:38:49;;;;;;;;;;;;;;;18.41;68.03;98886.56;2097898;28;19928;-46
2023/01/15 03:39:50;;;;;;;;;;;;;;;18.40;68.14;98879.56;2096995;28;19999;-47
2023/01/15 03:40:55;;;;;;;;;;;;;;;18.40;68.29;98882.22;2100113;28;19961;-48
2023/01/15 03:42:02;;;;;;;;;;;;;;;18.40;68.24;98876.03;2096894;28;19925;-47
2023/01/15 03:44:27;;;;;;;;;;;;;;;18.39;68.04;98877.91;2089264;28;19927;-48
2023/01/15 03:45:32;;;;;;;;;;;;;;;18.39;68.02;98874.41;2096643;28;19924;-48
2023/01/15 03:46:41;;;;;;;;;;;;;;;18.39;68.06;98869.84;2097458;28;20626;-47
2023/01/15 03:47:47;;;;;;;;;;;;;;;18.39;68.32;98874.41;2097938;28;19932;-48
2023/01/15 03:48:54;;;;;;;;;;;;;;;18.37;68.41;98871.06;2098547;28;20367;-48
2023/01/15 03:49:58;;;;;;;;;;;;;;;18.36;68.25;98870.25;2097918;28;19927;-48
2023/01/15 03:51:04;;;;;;;;;;;;;;;18.35;68.20;98873.94;2099195;28;19934;-48
2023/01/15 03:52:09;;;;;;;;;;;;;;;18.35;68.27;98871.25;2098689;28;19928;-47
2023/01/15 03:53:13;;;;;;;;;;;;;;;18.36;68.25;98875.59;2097934;28;19920;-48
2023/01/15 03:54:16;;;;;;;;;;;;;;;18.35;68.51;98878.47;2098242;28;19920;-48
2023/01/15 03:55:19;;;;;;;;;;;;;;;18.34;68.08;98868.78;2099645;28;19920;-49
2023/01/15 03:56:23;;;;;;;;;;;;;;;18.31;68.18;98867.31;2097802;28;19920;-48
2023/01/15 03:57:30;;;;;;;;;;;;;;;18.31;68.36;98867.31;2100140;28;19971;-47
2023/01/15 03:58:37;;;;;;;;;;;;;;;18.34;68.10;98866.91;2100211;28;19928;-47
2023/01/15 03:59:40;;;;;;;;;;;;;;;18.33;68.23;98869.78;2097569;28;19944;-48
2023/01/15 04:00:45;;;;;;;;;;;;;;;18.29;68.17;98859.44;2098332;28;19924;-50
2023/01/15 04:01:49;;;;;;;;;;;;;;;18.29;68.12;98863.97;2099347;28;19935;-48
2023/01/15 04:02:51;;;;;;;;;;;;;;;18.28;68.04;98859.66;2097912;28;20010;-51
2023/01/15 04:03:53;;;;;;;;;;;;;;;18.27;68.06;98852.59;2096606;28;19920;-50
2023/01/15 04:04:55;;;;;;;;;;;;;;;18.28;67.95;98854.28;2095796;28;20294;-49
2023/01/15 04:05:57;;;;;;;;;;;;;;;18.26;68.29;98859.84;2097138;28;19924;-45
2023/01/15 04:06:59;;;;;;;;;;;;;;;18.25;68.15;98860.03;2096962;28;19948;-48
2023/01/15 04:08:01;;;;;;;;;;;;;;;18.25;67.96;98862.72;2095980;28;19924;-50
2023/01/15 04:09:03;;;;;;;;;;;;;;;18.27;67.78;98857.97;2096457;28;20548;-52
2023/01/15 04:10:07;;;;;;;;;;;;;;;18.25;68.10;98860.03;2098809;28;20495;-47
2023/01/15 04:11:08;;;;;;;;;;;;;;;18.23;68.04;98852.16;2099578;28;19925;-51
2023/01/15 04:12:10;;;;;;;;;;;;;;;18.23;68.26;98854.84;2098460;28;21094;-48
2023/01/15 04:13:10;;;;;;;;;;;;;;;18.24;68.33;98855.69;2096302;28;20292;-47
2023/01/15 04:14:12;;;;;;;;;;;;;;;18.25;68.12;98852.00;2095202;28;19925;-46
2023/01/15 04:15:13;;;;;;;;;;;;;;;18.25;68.04;98857.34;2094591;28;19923;-46
2023/01/15 04:16:16;;;;;;;;;;;;;;;18.24;68.08;98847.63;2096685;28;19923;-49
2023/01/15 04:17:17;;;;;;;;;;;;;;;18.24;67.82;98850.31;2092611;28;19924;-47
2023/01/15 04:18:19;;;;;;;;;;;;;;;18.23;67.95;98849.47;2086071;28;19935;-51
2023/01/15 04:19:19;;;;;;;;;;;;;;;18.22;67.89;98852.34;2088760;28;19932;-48
2023/01/15 04:20:21;;;;;;;;;;;;;;;18.22;68.01;98846.97;2095644;28;20448;-47
2023/01/15 04:21:21;;;;;;;;;;;;;;;18.20;67.95;98844.50;2093434;28;19931;-47
2023/01/15 04:22:23;;;;;;;;;;;;;;;18.21;68.07;98851.53;2093429;28;20303;-47
2023/01/15 04:23:24;;;;;;;;;;;;;;;18.21;67.96;98845.34;2095023;28;19920;-47
2023/01/15 04:24:25;;;;;;;;;;;;;;;18.18;67.85;98848.41;2097015;28;19924;-48
2023/01/15 04:25:26;;;;;;;;;;;;;;;18.17;68.13;98849.44;2087624;28;20387;-47
2023/01/15 04:26:27;;;;;;;;;;;;;;;18.19;67.59;98850.06;2093565;28;19924;-50
2023/01/15 04:27:28;;;;;;;;;;;;;;;18.18;67.78;98840.34;2094296;28;20284;-48
2023/01/15 04:28:29;;;;;;;;;;;;;;;18.17;68.10;98849.44;2094967;28;19924;-47
2023/01/15 04:29:30;;;;;;;;;;;;;;;18.17;68.14;98846.75;2094910;28;20553;-47
2023/01/15 04:30:31;;;;;;;;;;;;;;;18.19;67.97;98844.69;2095876;28;19927;-47
2023/01/15 04:31:35;;;;;;;;;;;;;;;18.17;67.81;98850.28;2091114;28;19924;-48
2023/01/15 04:32:36;;;;;;;;;;;;;;;18.15;67.97;98846.13;2098093;28;20002;-50
2023/01/15 04:33:38;;;;;;;;;;;;;;;18.15;68.09;98846.13;2093368;28;19920;-49
2023/01/15 04:34:40;;;;;;;;;;;;;;;18.18;67.92;98851.09;2093199;28;19920;-47
2023/01/15 04:35:41;;;;;;;;;;;;;;;18.20;68.14;98854.44;2093242;28;19920;-47
2023/01/15 04:36:45;;;;;;;;;;;;;;;18.22;68.45;98855.03;2095774;28;20288;-47
2023/01/15 04:37:46;;;;;;;;;;;;;;;18.28;68.38;98855.09;2093319;28;19920;-47
2023/01/15 04:38:47;;;;;;;;;;;;;;;18.28;68.62;98851.59;2095969;28;19973;-47
2023/01/15 04:39:48;;;;;;;;;;;;;;;18.35;68.76;98844.41;2096173;28;20655;-48
2023/01/15 04:44:49;;;;;;;;;;;;;;;18.54;68.49;98838.31;2096604;28;21020;-47
2023/01/15 04:45:49;;;;;;;;;;;;;;;18.59;68.15;98834.22;2094552;28;20391;-50
2023/01/15 04:46:53;;;;;;;;;;;;;;;18.63;68.46;98830.09;2094711;28;19935;-47
2023/01/15 04:47:53;;;;;;;;;;;;;;;18.67;68.28;98817.94;2092974;27;19935;-47
2023/01/15 04:48:55;;;;;;;;;;;;;;;18.71;67.78;98830.75;2094185;28;19924;-48
2023/01/15 04:49:56;;;;;;;;;;;;;;;18.74;68.18;98824.19;2095536;28;19931;-47
2023/01/15 04:50:57;;;;;;;;;;;;;;;18.77;67.94;98828.34;2094129;28;19925;-48
2023/01/15 04:51:58;;;;;;;;;;;;;;;18.81;68.19;98824.22;2093551;28;19928;-46
2023/01/15 04:52:59;;;;;;;;;;;;;;;18.83;67.88;98824.84;2094266;28;20249;-49
2023/01/15 04:54:01;;;;;;;;;;;;;;;18.87;68.28;98821.56;2092936;28;19927;-48
2023/01/15 04:55:02;;;;;;;;;;;;;;;18.91;68.14;98820.13;2094065;28;19925;-47
2023/01/15 04:56:03;;;;;;;;;;;;;;;18.92;68.09;98827.16;2093107;28;19924;-45
2023/01/15 04:57:05;;;;;;;;;;;;;;;18.94;68.03;98817.06;2095033;28;20037;-47
2023/01/15 04:58:05;;;;;;;;;;;;;;;18.98;67.81;98812.91;2094765;28;19927;-50
2023/01/15 04:59:07;;;;;;;;;;;;;;;19.00;67.05;98817.25;2094813;28;20019;-48
2023/01/15 05:00:08;;;;;;;;;;;;;;;19.02;67.68;98805.28;2093674;28;19935;-47
2023/01/15 05:01:11;;;;;;;;;;;;;;;19.04;67.76;98807.78;2094820;28;20291;-48
2023/01/15 05:02:13;;;;;;;;;;;;;;;19.03;67.58;98804.25;2094824;28;19930;-48
2023/01/15 05:03:14;;;;;;;;;;;;;;;19.04;67.78;98789.78;2095153;28;19927;-47
2023/01/15 05:04:15;;;;;;;;;;;;;;;19.07;67.64;98799.28;2095580;28;19924;-47
2023/01/15 05:05:16;;;;;;;;;;;;;;;19.09;67.67;98789.19;2095247;28;20394;-47
2023/01/15 05:06:17;;;;;;;;;;;;;;;19.08;67.77;98777.56;2095583;28;19928;-47
2023/01/15 05:07:19;;;;;;;;;;;;;;;19.12;67.49;98791.47;2096574;28;19938;-50
2023/01/15 05:08:19;;;;;;;;;;;;;;;19.18;67.51;98788.78;2092938;28;20017;-48
2023/01/15 05:09:21;;;;;;;;;;;;;;;19.21;67.63;98787.53;2084266;28;20956;-48
2023/01/15 05:10:21;;;;;;;;;;;;;;;19.19;67.75;98784.22;2110574;27;20522;-48
2023/01/15 05:11:23;;;;;;;;;;;;;;;19.19;67.48;98789.59;2112174;27;19920;-47
2023/01/15 05:12:25;;;;;;;;;;;;;;;19.22;67.68;98788.38;2094233;28;19924;-48
2023/01/15 05:13:25;;;;;;;;;;;;;;;19.24;67.50;98797.06;2093422;28;19931;-47
2023/01/15 05:14:27;;;;;;;;;;;;;;;19.26;67.18;98789.63;2095271;28;20413;-47
2023/01/15 05:15:27;;;;;;;;;;;;;;;19.25;67.48;98788.81;2098152;28;20512;-47
2023/01/15 05:16:30;;;;;;;;;;;;;;;19.27;67.63;98792.09;2097316;28;19924;-46
2023/01/15 05:17:32;;;;;;;;;;;;;;;19.28;67.21;98784.84;2096302;28;19935;-47
2023/01/15 05:18:34;;;;;;;;;;;;;;;19.30;67.27;98775.56;2096952;28;19920;-48
2023/01/15 05:19:35;;;;;;;;;;;;;;;19.31;67.40;98774.53;2096247;28;19924;-50
2023/01/15 05:20:36;;;;;;;;;;;;;;;19.32;67.06;98772.66;2094218;28;19928;-48
2023/01/15 05:21:40;;;;;;;;;;;;;;;19.33;67.31;98771.63;2093600;28;19924;-49
2023/01/15 05:22:41;;;;;;;;;;;;;;;19.33;66.84;98771.63;2094025;28;20579;-48
2023/01/15 05:23:42;;;;;;;;;;;;;;;19.33;67.10;98768.94;2097131;28;19928;-48
2023/01/15 05:24:43;;;;;;;;;;;;;;;19.33;67.08;98772.44;2094743;28;19931;-49
2023/01/15 05:25:44;;;;;;;;;;;;;;;19.34;67.23;98778.69;2096348;28;20279;-48
2023/01/15 05:26:46;;;;;;;;;;;;;;;19.34;67.27;98782.19;2094225;28;19920;-48
2023/01/15 05:27:46;;;;;;;;;;;;;;;19.35;67.01;98783.00;2096501;28;19931;-47
2023/01/15 05:28:48;;;;;;;;;;;;;;;19.37;66.85;98781.78;2096891;28;19966;-48
2023/01/15 05:29:50;;;;;;;;;;;;;;;19.39;67.05;98782.41;2095344;28;19920;-47
2023/01/15 05:30:50;;;;;;;;;;;;;;;19.39;67.18;98774.34;2096425;28;19925;-47
2023/01/15 05:31:52;;;;;;;;;;;;;;;19.38;67.03;98772.66;2094618;28;19927;-49
2023/01/15 05:32:54;;;;;;;;;;;;;;;19.37;67.00;98771.03;2094447;28;19932;-47
2023/01/15 05:33:56;;;;;;;;;;;;;;;19.39;66.73;98773.53;2094931;28;19923;-47
2023/01/15 05:34:56;;;;;;;;;;;;;;;19.38;67.21;98778.03;2095426;28;19932;-47
2023/01/15 05:36:00;;;;;;;;;;;;;;;19.38;66.97;98780.72;2093670;28;19924;-47